createdAt,value
2018-08-27T00:00:07.118Z,13.22
2018-08-27T00:00:40.445Z,12.07
2018-08-27T00:01:13.374Z,13.48
2018-08-27T00:01:46.327Z,12.98
2018-08-27T00:02:19.541Z,13.03
2018-08-27T00:02:52.688Z,12.53
2018-08-27T00:03:25.611Z,12.35
2018-08-27T00:03:58.558Z,12.07
2018-08-27T00:04:31.481Z,10.63
2018-08-27T00:05:04.431Z,11.22
2018-08-27T00:05:37.406Z,12.47
2018-08-27T00:06:10.521Z,11.55
2018-08-27T00:06:43.502Z,11.10
2018-08-27T00:07:16.553Z,11.75
2018-08-27T00:07:49.502Z,11.60
2018-08-27T00:08:22.425Z,10.80
2018-08-27T00:08:55.345Z,11.53
2018-08-27T00:09:28.281Z,10.48
2018-08-27T00:10:01.296Z,11.63
2018-08-27T00:10:34.266Z,11.88
2018-08-27T00:11:07.313Z,10.18
2018-08-27T00:11:40.954Z,11.70
2018-08-27T00:12:13.981Z,10.65
2018-08-27T00:12:47.182Z,10.85
2018-08-27T00:13:20.371Z,11.08
2018-08-27T00:13:53.313Z,10.48
2018-08-27T00:14:26.996Z,9.98
2018-08-27T00:14:59.937Z,10.43
2018-08-27T00:15:33.013Z,10.30
2018-08-27T00:16:05.917Z,11.40
2018-08-27T00:16:39.360Z,11.18
2018-08-27T00:17:12.299Z,11.25
2018-08-27T00:17:45.245Z,11.08
2018-08-27T00:18:18.344Z,10.93
2018-08-27T00:18:51.509Z,10.40
2018-08-27T00:19:24.662Z,11.53
2018-08-27T00:19:57.698Z,11.15
2018-08-27T00:20:30.807Z,12.10
2018-08-27T00:21:04.513Z,11.55
2018-08-27T00:21:37.683Z,11.30
2018-08-27T00:22:10.896Z,12.23
2018-08-27T00:22:44.037Z,11.63
2018-08-27T00:23:16.974Z,11.85
2018-08-27T00:23:50.133Z,10.98
2018-08-27T00:24:23.308Z,10.85
2018-08-27T00:24:56.246Z,11.70
2018-08-27T00:25:29.386Z,11.60
2018-08-27T00:26:02.322Z,11.63
2018-08-27T00:26:35.313Z,12.20
2018-08-27T00:27:08.398Z,11.60
2018-08-27T00:27:41.312Z,11.00
2018-08-27T00:28:14.298Z,10.70
2018-08-27T00:28:47.470Z,13.03
2018-08-27T00:29:20.397Z,12.07
2018-08-27T00:29:53.526Z,11.97
2018-08-27T00:30:26.720Z,11.35
2018-08-27T00:30:59.901Z,12.53
2018-08-27T00:31:33.053Z,12.40
2018-08-27T00:32:06.262Z,10.58
2018-08-27T00:32:39.466Z,11.00
2018-08-27T00:33:12.405Z,11.28
2018-08-27T00:33:45.513Z,11.00
2018-08-27T00:34:18.471Z,11.50
2018-08-27T00:34:51.457Z,12.00
2018-08-27T00:35:24.406Z,12.90
2018-08-27T00:35:57.349Z,11.85
2018-08-27T00:36:30.467Z,10.70
2018-08-27T00:37:03.383Z,11.88
2018-08-27T00:37:36.291Z,11.97
2018-08-27T00:38:09.389Z,11.48
2018-08-27T00:38:42.517Z,10.85
2018-08-27T00:39:15.822Z,10.53
2018-08-27T00:39:48.961Z,10.93
2018-08-27T00:40:22.086Z,10.63
2018-08-27T00:40:55.241Z,10.60
2018-08-27T00:41:28.161Z,10.40
2018-08-27T00:42:01.326Z,11.03
2018-08-27T00:42:34.273Z,10.72
2018-08-27T00:43:07.258Z,11.50
2018-08-27T00:43:40.208Z,11.93
2018-08-27T00:44:13.429Z,10.23
2018-08-27T00:44:46.377Z,11.15
2018-08-27T00:45:19.453Z,10.08
2018-08-27T00:45:52.426Z,11.53
2018-08-27T00:46:25.483Z,10.00
2018-08-27T00:46:58.449Z,10.43
2018-08-27T00:47:31.589Z,10.43
2018-08-27T00:48:04.521Z,10.88
2018-08-27T00:48:37.646Z,11.40
2018-08-27T00:49:10.576Z,10.98
2018-08-27T00:49:43.711Z,10.70
2018-08-27T00:50:16.653Z,10.88
2018-08-27T00:50:49.590Z,10.15
2018-08-27T00:51:22.589Z,10.88
2018-08-27T00:51:55.536Z,10.72
2018-08-27T00:52:28.671Z,11.03
2018-08-27T00:53:01.795Z,12.15
2018-08-27T00:53:34.742Z,11.65
2018-08-27T00:54:07.647Z,12.20
2018-08-27T00:54:40.610Z,10.60
2018-08-27T00:55:13.558Z,12.13
2018-08-27T00:55:46.464Z,12.37
2018-08-27T00:56:19.396Z,12.73
2018-08-27T00:56:52.337Z,12.75
2018-08-27T00:57:25.409Z,13.40
2018-08-27T00:57:58.549Z,12.55
2018-08-27T00:58:31.477Z,13.25
2018-08-27T00:59:04.385Z,12.85
2018-08-27T00:59:37.305Z,11.95
2018-08-27T01:00:10.224Z,12.88
2018-08-27T01:00:43.293Z,13.20
2018-08-27T01:01:16.597Z,12.80
2018-08-27T01:01:49.890Z,13.58
2018-08-27T01:02:22.824Z,12.63
2018-08-27T01:02:55.961Z,14.18
2018-08-27T01:03:29.177Z,13.35
2018-08-27T01:04:02.134Z,13.95
2018-08-27T01:04:35.067Z,15.72
2018-08-27T01:05:07.997Z,15.45
2018-08-27T01:05:40.942Z,15.90
2018-08-27T01:06:14.060Z,14.43
2018-08-27T01:06:47.014Z,14.18
2018-08-27T01:07:20.192Z,14.47
2018-08-27T01:07:53.371Z,14.47
2018-08-27T01:08:26.288Z,13.78
2018-08-27T01:08:59.236Z,13.55
2018-08-27T01:09:32.190Z,14.35
2018-08-27T01:10:05.137Z,15.05
2018-08-27T01:10:38.074Z,15.58
2018-08-27T01:11:11.010Z,15.95
2018-08-27T01:11:44.083Z,16.77
2018-08-27T01:12:17.014Z,16.77
2018-08-27T01:12:50.124Z,18.07
2018-08-27T01:13:23.296Z,17.35
2018-08-27T01:13:56.465Z,18.60
2018-08-27T01:14:29.635Z,17.73
2018-08-27T01:15:02.575Z,19.02
2018-08-27T01:15:35.712Z,17.60
2018-08-27T01:16:08.840Z,18.67
2018-08-27T01:16:41.785Z,19.52
2018-08-27T01:17:14.940Z,19.55
2018-08-27T01:17:48.065Z,17.65
2018-08-27T01:18:21.030Z,17.15
2018-08-27T01:18:54.123Z,19.02
2018-08-27T01:19:27.030Z,19.90
2018-08-27T01:19:59.936Z,19.48
2018-08-27T01:20:32.885Z,19.92
2018-08-27T01:21:05.972Z,20.10
2018-08-27T01:21:39.137Z,19.15
2018-08-27T01:22:12.483Z,19.57
2018-08-27T01:22:45.447Z,19.92
2018-08-27T01:23:18.386Z,20.50
2018-08-27T01:23:51.494Z,21.02
2018-08-27T01:24:24.430Z,19.35
2018-08-27T01:24:57.360Z,20.95
2018-08-27T01:25:30.297Z,21.12
2018-08-27T01:26:03.273Z,19.15
2018-08-27T01:26:36.304Z,18.98
2018-08-27T01:27:09.241Z,19.50
2018-08-27T01:27:42.266Z,19.23
2018-08-27T01:28:15.265Z,18.82
2018-08-27T01:28:48.273Z,18.20
2018-08-27T01:29:21.286Z,19.10
2018-08-27T01:29:54.313Z,17.80
2018-08-27T01:30:27.307Z,17.50
2018-08-27T01:31:00.196Z,20.82
2018-08-27T01:31:33.092Z,18.50
2018-08-27T01:32:11.738Z,17.80
2018-08-27T01:32:44.816Z,18.45
2018-08-27T01:33:17.755Z,17.10
2018-08-27T01:33:51.166Z,16.45
2018-08-27T01:34:24.105Z,17.40
2018-08-27T01:34:58.512Z,15.78
2018-08-27T01:35:31.465Z,17.10
2018-08-27T01:36:04.414Z,17.50
2018-08-27T01:36:37.386Z,15.75
2018-08-27T01:37:10.591Z,18.60
2018-08-27T01:37:43.736Z,16.32
2018-08-27T01:38:16.945Z,14.47
2018-08-27T01:38:50.082Z,14.70
2018-08-27T01:39:23.321Z,14.13
2018-08-27T01:39:56.788Z,15.60
2018-08-27T01:40:30.019Z,13.65
2018-08-27T01:41:03.013Z,14.07
2018-08-27T01:41:36.012Z,14.93
2018-08-27T01:42:08.990Z,13.90
2018-08-27T01:42:41.937Z,14.98
2018-08-27T01:43:15.137Z,13.40
2018-08-27T01:43:48.370Z,15.15
2018-08-27T01:44:21.321Z,13.10
2018-08-27T01:44:54.401Z,13.28
2018-08-27T01:45:27.340Z,14.33
2018-08-27T01:46:00.513Z,14.38
2018-08-27T01:46:33.558Z,13.58
2018-08-27T01:47:06.517Z,14.00
2018-08-27T01:47:39.430Z,13.72
2018-08-27T01:48:12.609Z,13.60
2018-08-27T01:48:45.757Z,13.90
2018-08-27T01:49:18.658Z,13.80
2018-08-27T01:49:51.948Z,13.65
2018-08-27T01:50:25.026Z,13.53
2018-08-27T01:50:58.215Z,13.80
2018-08-27T01:51:31.333Z,13.48
2018-08-27T01:52:04.542Z,12.95
2018-08-27T01:52:37.479Z,13.40
2018-08-27T01:53:10.402Z,14.07
2018-08-27T01:53:43.333Z,14.03
2018-08-27T01:54:16.336Z,14.80
2018-08-27T01:54:49.257Z,14.30
2018-08-27T01:55:22.385Z,13.83
2018-08-27T01:55:55.318Z,14.50
2018-08-27T01:56:28.457Z,15.13
2018-08-27T01:57:02.212Z,14.98
2018-08-27T01:57:35.373Z,14.78
2018-08-27T01:58:08.296Z,14.05
2018-08-27T01:58:45.967Z,16.05
2018-08-27T01:59:18.928Z,15.70
2018-08-27T01:59:51.821Z,15.72
2018-08-27T02:00:24.986Z,17.00
2018-08-27T02:00:58.178Z,16.48
2018-08-27T02:01:31.332Z,14.33
2018-08-27T02:02:04.655Z,17.42
2018-08-27T02:02:37.589Z,17.05
2018-08-27T02:03:10.502Z,16.25
2018-08-27T02:03:43.409Z,15.18
2018-08-27T02:04:16.387Z,16.07
2018-08-27T02:04:49.303Z,17.65
2018-08-27T02:05:22.437Z,16.15
2018-08-27T02:05:55.571Z,15.70
2018-08-27T02:06:34.062Z,15.63
2018-08-27T02:07:07.093Z,16.27
2018-08-27T02:07:40.266Z,16.45
2018-08-27T02:08:13.744Z,16.23
2018-08-27T02:08:46.906Z,16.67
2018-08-27T02:09:19.824Z,15.72
2018-08-27T02:09:53.041Z,16.42
2018-08-27T02:10:26.170Z,14.70
2018-08-27T02:10:59.351Z,18.12
2018-08-27T02:11:32.273Z,16.95
2018-08-27T02:12:05.401Z,17.45
2018-08-27T02:12:38.330Z,19.48
2018-08-27T02:13:11.272Z,17.05
2018-08-27T02:13:44.319Z,16.32
2018-08-27T02:14:17.789Z,17.32
2018-08-27T02:14:51.014Z,16.12
2018-08-27T02:15:24.166Z,16.60
2018-08-27T02:15:57.368Z,17.95
2018-08-27T02:16:30.562Z,17.23
2018-08-27T02:17:03.782Z,18.87
2018-08-27T02:17:36.750Z,18.48
2018-08-27T02:18:09.802Z,20.97
2018-08-27T02:18:42.963Z,20.75
2018-08-27T02:19:16.178Z,21.37
2018-08-27T02:19:49.120Z,23.10
2018-08-27T02:20:22.049Z,23.10
2018-08-27T02:20:55.004Z,25.02
2018-08-27T02:21:28.260Z,22.90
2018-08-27T02:22:01.422Z,25.12
2018-08-27T02:22:34.345Z,22.45
2018-08-27T02:23:07.282Z,22.40
2018-08-27T02:23:40.334Z,23.62
2018-08-27T02:24:13.477Z,24.00
2018-08-27T02:24:46.424Z,23.22
2018-08-27T02:25:19.380Z,23.87
2018-08-27T02:25:52.469Z,23.92
2018-08-27T02:26:25.579Z,23.70
2018-08-27T02:26:58.751Z,22.25
2018-08-27T02:27:31.696Z,22.98
2018-08-27T02:28:04.857Z,22.60
2018-08-27T02:28:38.048Z,22.00
2018-08-27T02:29:10.951Z,22.65
2018-08-27T02:29:44.118Z,22.20
2018-08-27T02:30:17.283Z,21.12
2018-08-27T02:30:50.221Z,21.77
2018-08-27T02:31:23.253Z,21.12
2018-08-27T02:31:56.297Z,22.30
2018-08-27T02:32:29.322Z,22.60
2018-08-27T02:33:02.477Z,20.57
2018-08-27T02:33:35.410Z,20.12
2018-08-27T02:34:08.419Z,18.60
2018-08-27T02:34:41.357Z,20.05
2018-08-27T02:35:14.334Z,13.55
2018-08-27T02:35:47.227Z,14.35
2018-08-27T02:36:20.419Z,12.50
2018-08-27T02:36:53.346Z,12.60
2018-08-27T02:37:26.437Z,12.03
2018-08-27T02:37:59.348Z,12.10
2018-08-27T02:38:32.490Z,10.68
2018-08-27T02:39:07.146Z,9.38
2018-08-27T02:39:40.381Z,8.55
2018-08-27T02:40:13.308Z,8.88
2018-08-27T02:40:46.221Z,6.22
2018-08-27T02:41:19.302Z,6.58
2018-08-27T02:41:52.471Z,6.33
2018-08-27T02:42:25.594Z,6.35
2018-08-27T02:42:58.562Z,5.17
2018-08-27T02:43:31.477Z,3.62
2018-08-27T02:44:04.414Z,4.40
2018-08-27T02:44:37.427Z,4.60
2018-08-27T02:45:10.364Z,4.67
2018-08-27T02:45:43.477Z,4.50
2018-08-27T02:46:16.562Z,4.05
2018-08-27T02:46:49.573Z,3.52
2018-08-27T02:47:22.741Z,3.00
2018-08-27T02:47:55.846Z,5.37
2018-08-27T02:48:29.319Z,3.55
2018-08-27T02:49:02.222Z,3.35
2018-08-27T02:49:35.120Z,3.10
2018-08-27T02:50:08.041Z,2.70
2018-08-27T02:50:40.986Z,3.47
2018-08-27T02:51:14.045Z,3.72
2018-08-27T02:51:47.109Z,2.90
2018-08-27T02:52:20.097Z,2.65
2018-08-27T02:52:53.215Z,2.87
2018-08-27T02:53:26.434Z,2.42
2018-08-27T02:53:59.341Z,3.02
2018-08-27T02:54:32.442Z,2.80
2018-08-27T02:55:05.361Z,3.60
2018-08-27T02:55:38.268Z,3.85
2018-08-27T02:56:11.420Z,3.92
2018-08-27T02:56:44.338Z,4.10
2018-08-27T02:57:17.478Z,3.20
2018-08-27T02:57:50.432Z,3.52
2018-08-27T02:58:23.365Z,4.55
2018-08-27T02:58:56.269Z,4.30
2018-08-27T02:59:29.230Z,3.90
2018-08-27T03:00:02.147Z,4.17
2018-08-27T03:00:35.319Z,4.70
2018-08-27T03:01:08.265Z,5.33
2018-08-27T03:01:41.227Z,5.10
2018-08-27T03:02:14.262Z,4.65
2018-08-27T03:02:47.419Z,5.85
2018-08-27T03:03:20.557Z,5.80
2018-08-27T03:03:53.470Z,5.47
2018-08-27T03:04:26.642Z,4.92
2018-08-27T03:05:00.108Z,5.37
2018-08-27T03:05:33.021Z,3.92
2018-08-27T03:06:06.185Z,4.78
2018-08-27T03:06:39.358Z,5.20
2018-08-27T03:07:12.713Z,4.50
2018-08-27T03:07:45.956Z,4.03
2018-08-27T03:08:18.893Z,4.45
2018-08-27T03:08:52.042Z,4.20
2018-08-27T03:09:25.284Z,3.90
2018-08-27T03:09:58.217Z,3.90
2018-08-27T03:10:31.292Z,4.65
2018-08-27T03:11:04.233Z,4.75
2018-08-27T03:11:37.209Z,3.80
2018-08-27T03:12:10.137Z,3.85
2018-08-27T03:12:43.085Z,3.90
2018-08-27T03:13:16.220Z,3.70
2018-08-27T03:13:49.433Z,3.95
2018-08-27T03:14:22.352Z,3.80
2018-08-27T03:14:55.507Z,4.22
2018-08-27T03:15:28.662Z,4.60
2018-08-27T03:16:01.599Z,5.35
2018-08-27T03:16:34.713Z,4.72
2018-08-27T03:17:07.896Z,4.10
2018-08-27T03:17:40.785Z,5.00
2018-08-27T03:18:14.128Z,5.33
2018-08-27T03:18:47.147Z,4.60
2018-08-27T03:19:20.313Z,4.87
2018-08-27T03:19:53.472Z,4.72
2018-08-27T03:20:26.653Z,5.05
2018-08-27T03:21:00.124Z,4.90
2018-08-27T03:21:33.293Z,5.08
2018-08-27T03:22:06.214Z,5.17
2018-08-27T03:22:39.371Z,4.87
2018-08-27T03:23:12.317Z,5.45
2018-08-27T03:23:45.437Z,5.30
2018-08-27T03:24:18.593Z,6.40
2018-08-27T03:24:51.517Z,5.78
2018-08-27T03:25:24.605Z,5.78
2018-08-27T03:25:57.594Z,6.25
2018-08-27T03:26:30.961Z,6.00
2018-08-27T03:27:03.922Z,6.25
2018-08-27T03:27:37.019Z,5.08
2018-08-27T03:28:09.933Z,5.58
2018-08-27T03:28:43.170Z,6.15
2018-08-27T03:29:16.124Z,6.35
2018-08-27T03:29:49.122Z,5.50
2018-08-27T03:30:22.151Z,4.70
2018-08-27T03:30:55.460Z,5.28
2018-08-27T03:31:28.386Z,5.30
2018-08-27T03:32:01.613Z,6.47
2018-08-27T03:32:34.694Z,5.60
2018-08-27T03:33:07.624Z,5.70
2018-08-27T03:33:40.792Z,7.83
2018-08-27T03:34:13.923Z,6.00
2018-08-27T03:34:46.847Z,6.72
2018-08-27T03:35:19.770Z,6.85
2018-08-27T03:35:52.893Z,7.33
2018-08-27T03:36:26.070Z,6.87
2018-08-27T03:36:59.019Z,6.92
2018-08-27T03:37:31.961Z,7.03
2018-08-27T03:38:05.345Z,6.10
2018-08-27T03:38:38.346Z,6.72
2018-08-27T03:39:12.340Z,7.05
2018-08-27T03:39:45.464Z,6.87
2018-08-27T03:40:18.534Z,5.90
2018-08-27T03:40:51.505Z,6.10
2018-08-27T03:41:24.622Z,6.85
2018-08-27T03:41:57.864Z,6.58
2018-08-27T03:42:31.029Z,6.90
2018-08-27T03:43:03.999Z,6.28
2018-08-27T03:43:37.060Z,7.97
2018-08-27T03:44:10.763Z,7.30
2018-08-27T03:44:43.737Z,6.97
2018-08-27T03:45:16.786Z,7.28
2018-08-27T03:45:49.802Z,7.17
2018-08-27T03:46:22.731Z,6.45
2018-08-27T03:46:55.846Z,6.87
2018-08-27T03:47:29.090Z,6.97
2018-08-27T03:48:02.273Z,7.00
2018-08-27T03:48:35.439Z,6.50
2018-08-27T03:49:08.415Z,7.80
2018-08-27T03:49:41.421Z,7.85
2018-08-27T03:50:14.509Z,7.37
2018-08-27T03:50:47.509Z,7.05
2018-08-27T03:51:20.429Z,6.45
2018-08-27T03:51:53.485Z,6.90
2018-08-27T03:52:26.424Z,6.08
2018-08-27T03:52:59.588Z,7.35
2018-08-27T03:53:32.571Z,7.40
2018-08-27T03:54:40.296Z,7.35
2018-08-27T03:55:13.252Z,6.70
2018-08-27T03:55:46.376Z,7.12
2018-08-27T03:56:19.317Z,7.08
2018-08-27T03:56:52.423Z,7.30
2018-08-27T03:57:25.344Z,6.58
2018-08-27T03:57:58.634Z,6.33
2018-08-27T03:58:31.680Z,6.97
2018-08-27T03:59:04.879Z,6.37
2018-08-27T03:59:37.931Z,6.80
2018-08-27T04:00:10.927Z,6.25
2018-08-27T04:00:44.229Z,4.90
2018-08-27T04:01:17.230Z,6.10
2018-08-27T04:01:50.277Z,6.53
2018-08-27T04:02:23.352Z,6.90
2018-08-27T04:02:56.597Z,5.80
2018-08-27T04:03:29.644Z,6.03
2018-08-27T04:04:02.548Z,5.65
2018-08-27T04:04:35.496Z,5.80
2018-08-27T04:05:08.613Z,6.12
2018-08-27T04:05:41.777Z,6.75
2018-08-27T04:06:14.949Z,6.87
2018-08-27T04:06:47.887Z,7.00
2018-08-27T04:07:21.243Z,6.80
2018-08-27T04:07:54.442Z,6.50
2018-08-27T04:08:27.821Z,5.87
2018-08-27T04:09:00.946Z,6.22
2018-08-27T04:09:34.057Z,5.80
2018-08-27T04:10:07.103Z,6.05
2018-08-27T04:10:40.080Z,5.33
2018-08-27T04:11:13.359Z,6.60
2018-08-27T04:11:46.698Z,5.05
2018-08-27T04:12:19.735Z,6.55
2018-08-27T04:12:52.756Z,5.42
2018-08-27T04:13:25.685Z,5.97
2018-08-27T04:13:59.658Z,5.60
2018-08-27T04:14:32.801Z,6.45
2018-08-27T04:15:05.729Z,6.17
2018-08-27T04:15:38.682Z,6.10
2018-08-27T04:16:11.949Z,6.55
2018-08-27T04:16:45.030Z,6.25
2018-08-27T04:17:34.657Z,6.00
2018-08-27T04:18:07.728Z,5.28
2018-08-27T04:18:40.995Z,5.67
2018-08-27T04:19:14.034Z,5.62
2018-08-27T04:19:46.971Z,4.70
2018-08-27T04:20:19.989Z,5.67
2018-08-27T04:20:52.994Z,5.22
2018-08-27T04:21:26.169Z,4.55
2018-08-27T04:21:59.220Z,4.40
2018-08-27T04:22:32.458Z,5.00
2018-08-27T04:23:05.436Z,4.42
2018-08-27T04:23:38.367Z,4.28
2018-08-27T04:24:11.545Z,4.70
2018-08-27T04:24:44.618Z,4.60
2018-08-27T04:25:17.726Z,4.95
2018-08-27T04:25:50.686Z,4.10
2018-08-27T04:26:24.186Z,4.53
2018-08-27T04:26:57.317Z,3.55
2018-08-27T04:27:30.280Z,3.80
2018-08-27T04:28:03.351Z,3.52
2018-08-27T04:28:36.659Z,4.17
2018-08-27T04:29:10.522Z,3.70
2018-08-27T04:29:43.493Z,3.70
2018-08-27T04:30:16.421Z,3.42
2018-08-27T04:30:49.515Z,3.60
2018-08-27T04:31:22.754Z,3.45
2018-08-27T04:31:55.706Z,3.33
2018-08-27T04:32:28.788Z,3.40
2018-08-27T04:33:02.083Z,3.92
2018-08-27T04:33:35.106Z,3.20
2018-08-27T04:34:08.417Z,4.37
2018-08-27T04:34:41.509Z,3.22
2018-08-27T04:35:14.466Z,2.98
2018-08-27T04:35:48.198Z,2.95
2018-08-27T04:36:21.658Z,4.03
2018-08-27T04:36:54.767Z,3.40
2018-08-27T04:37:28.040Z,3.10
2018-08-27T04:38:01.517Z,3.10
2018-08-27T04:38:34.678Z,3.27
2018-08-27T04:39:08.432Z,2.75
2018-08-27T04:39:41.673Z,3.27
2018-08-27T04:40:15.154Z,2.90
2018-08-27T04:40:48.296Z,3.05
2018-08-27T04:41:21.245Z,2.95
2018-08-27T04:41:54.255Z,2.75
2018-08-27T04:42:27.334Z,2.85
2018-08-27T04:43:00.349Z,3.30
2018-08-27T04:43:33.600Z,3.20
2018-08-27T04:44:06.670Z,2.70
2018-08-27T04:44:39.637Z,2.92
2018-08-27T04:45:12.748Z,2.65
2018-08-27T04:45:46.097Z,2.80
2018-08-27T04:46:19.417Z,2.60
2018-08-27T04:46:52.393Z,2.83
2018-08-27T04:47:25.306Z,2.72
2018-08-27T04:47:58.430Z,2.50
2018-08-27T04:48:31.607Z,2.30
2018-08-27T04:49:04.729Z,2.92
2018-08-27T04:49:37.705Z,2.85
2018-08-27T04:50:10.695Z,2.33
2018-08-27T04:50:43.751Z,2.30
2018-08-27T04:51:16.898Z,2.35
2018-08-27T04:51:50.038Z,2.40
2018-08-27T04:52:23.157Z,3.10
2018-08-27T04:52:56.086Z,2.30
2018-08-27T04:53:28.995Z,2.50
2018-08-27T04:54:02.120Z,2.00
2018-08-27T04:54:35.087Z,2.30
2018-08-27T04:55:08.289Z,2.95
2018-08-27T04:55:41.326Z,2.40
2018-08-27T04:56:14.277Z,2.40
2018-08-27T04:56:47.252Z,2.47
2018-08-27T04:57:20.316Z,2.25
2018-08-27T04:57:53.240Z,3.30
2018-08-27T04:58:28.355Z,1.80
2018-08-27T04:59:06.872Z,1.70
2018-08-27T04:59:42.738Z,1.82
2018-08-27T05:00:27.901Z,2.25
2018-08-27T05:01:00.877Z,2.05
2018-08-27T05:01:34.061Z,2.02
2018-08-27T05:02:07.185Z,2.45
2018-08-27T05:02:40.539Z,2.00
2018-08-27T05:03:13.544Z,2.10
2018-08-27T05:03:46.610Z,1.70
2018-08-27T05:04:19.627Z,1.55
2018-08-27T05:04:52.673Z,2.95
2018-08-27T05:05:25.668Z,2.15
2018-08-27T05:05:58.855Z,2.10
2018-08-27T05:06:32.273Z,2.30
2018-08-27T05:07:05.465Z,2.52
2018-08-27T05:07:39.056Z,2.10
2018-08-27T05:08:12.335Z,2.40
2018-08-27T05:08:45.386Z,2.10
2018-08-27T05:09:18.366Z,2.00
2018-08-27T05:09:51.417Z,1.80
2018-08-27T05:10:24.962Z,2.40
2018-08-27T05:10:57.937Z,2.10
2018-08-27T05:11:30.922Z,1.82
2018-08-27T05:12:03.951Z,1.77
2018-08-27T05:12:36.999Z,2.20
2018-08-27T05:13:10.246Z,1.90
2018-08-27T05:13:43.177Z,1.55
2018-08-27T05:14:16.948Z,2.20
2018-08-27T05:14:49.900Z,1.80
2018-08-27T05:15:22.888Z,1.45
2018-08-27T05:15:56.161Z,1.95
2018-08-27T05:16:29.226Z,2.12
2018-08-27T05:17:02.380Z,2.45
2018-08-27T05:17:35.350Z,1.90
2018-08-27T05:18:08.869Z,2.00
2018-08-27T05:18:42.183Z,2.17
2018-08-27T05:19:16.156Z,2.30
2018-08-27T05:19:49.274Z,2.00
2018-08-27T05:20:22.364Z,2.45
2018-08-27T05:20:55.384Z,2.05
2018-08-27T05:21:28.871Z,2.25
2018-08-27T05:22:01.946Z,1.70
2018-08-27T05:22:35.079Z,2.10
2018-08-27T05:23:08.384Z,2.17
2018-08-27T05:23:41.437Z,1.67
2018-08-27T05:24:14.794Z,2.17
2018-08-27T05:24:47.751Z,2.25
2018-08-27T05:25:20.679Z,2.12
2018-08-27T05:25:53.732Z,2.17
2018-08-27T05:26:26.814Z,2.08
2018-08-27T05:26:59.770Z,2.10
2018-08-27T05:27:32.816Z,2.30
2018-08-27T05:28:05.791Z,1.85
2018-08-27T05:28:38.796Z,2.10
2018-08-27T05:29:11.738Z,2.87
2018-08-27T05:29:45.313Z,2.27
2018-08-27T05:30:18.378Z,2.35
2018-08-27T05:30:51.731Z,2.25
2018-08-27T05:31:24.691Z,2.10
2018-08-27T05:31:57.973Z,2.62
2018-08-27T05:32:30.888Z,1.95
2018-08-27T05:33:04.349Z,2.65
2018-08-27T05:33:37.420Z,2.35
2018-08-27T05:34:10.669Z,2.12
2018-08-27T05:34:43.846Z,2.75
2018-08-27T05:35:17.134Z,2.30
2018-08-27T05:35:50.122Z,2.40
2018-08-27T05:36:23.292Z,2.27
2018-08-27T05:36:56.825Z,2.20
2018-08-27T05:37:29.854Z,2.20
2018-08-27T05:38:03.027Z,2.30
2018-08-27T05:38:36.176Z,2.40
2018-08-27T05:39:10.041Z,1.75
2018-08-27T05:40:23.279Z,2.33
2018-08-27T05:40:56.440Z,2.70
2018-08-27T05:41:29.375Z,2.33
2018-08-27T05:42:02.466Z,2.52
2018-08-27T05:42:35.742Z,2.25
2018-08-27T05:43:09.650Z,2.33
2018-08-27T05:43:43.330Z,2.05
2018-08-27T05:44:16.343Z,1.85
2018-08-27T05:44:49.402Z,2.00
2018-08-27T05:45:22.529Z,2.30
2018-08-27T05:45:55.781Z,2.40
2018-08-27T05:46:28.961Z,2.50
2018-08-27T05:47:02.162Z,2.40
2018-08-27T05:47:35.778Z,2.45
2018-08-27T05:48:08.999Z,2.50
2018-08-27T05:48:42.335Z,2.20
2018-08-27T05:49:15.565Z,2.40
2018-08-27T05:49:48.616Z,2.08
2018-08-27T05:50:21.683Z,1.90
2018-08-27T05:50:55.521Z,2.30
2018-08-27T05:51:29.015Z,2.50
2018-08-27T05:52:02.230Z,2.30
2018-08-27T05:52:35.725Z,2.10
2018-08-27T05:53:08.719Z,2.20
2018-08-27T05:53:41.720Z,3.08
2018-08-27T05:54:14.761Z,2.52
2018-08-27T05:54:48.325Z,2.08
2018-08-27T05:55:21.435Z,2.20
2018-08-27T05:55:54.443Z,2.40
2018-08-27T05:56:27.654Z,2.50
2018-08-27T05:57:00.766Z,1.90
2018-08-27T05:57:33.986Z,2.70
2018-08-27T05:58:07.047Z,2.20
2018-08-27T05:58:40.084Z,2.40
2018-08-27T05:59:13.272Z,2.30
2018-08-27T05:59:46.320Z,2.55
2018-08-27T06:00:19.656Z,2.00
2018-08-27T06:00:52.736Z,1.60
2018-08-27T06:01:25.848Z,2.27
2018-08-27T06:01:59.273Z,1.87
2018-08-27T06:02:33.109Z,2.05
2018-08-27T06:03:06.114Z,1.90
2018-08-27T06:03:39.540Z,2.15
2018-08-27T06:04:12.723Z,1.62
2018-08-27T06:04:45.899Z,1.95
2018-08-27T06:05:18.850Z,2.33
2018-08-27T06:05:51.904Z,2.37
2018-08-27T06:06:25.082Z,2.25
2018-08-27T06:06:57.995Z,2.25
2018-08-27T06:07:30.950Z,1.70
2018-08-27T06:08:04.557Z,2.40
2018-08-27T06:08:37.621Z,1.92
2018-08-27T06:09:10.976Z,2.20
2018-08-27T06:09:43.930Z,2.27
2018-08-27T06:10:17.248Z,1.95
2018-08-27T06:10:50.207Z,1.62
2018-08-27T06:11:23.413Z,2.05
2018-08-27T06:11:56.370Z,2.10
2018-08-27T06:12:29.644Z,2.30
2018-08-27T06:13:02.593Z,1.90
2018-08-27T06:13:35.607Z,2.08
2018-08-27T06:14:08.688Z,1.60
2018-08-27T06:14:41.663Z,2.12
2018-08-27T06:15:14.708Z,2.00
2018-08-27T06:15:47.628Z,1.90
2018-08-27T06:16:20.685Z,2.10
2018-08-27T06:16:53.672Z,1.70
2018-08-27T06:17:26.852Z,1.90
2018-08-27T06:18:00.022Z,1.90
2018-08-27T06:18:32.953Z,2.12
2018-08-27T06:19:05.893Z,1.80
2018-08-27T06:19:38.981Z,1.80
2018-08-27T06:20:11.949Z,2.58
2018-08-27T06:20:44.940Z,1.80
2018-08-27T06:21:17.883Z,2.10
2018-08-27T06:21:51.060Z,1.70
2018-08-27T06:22:24.315Z,2.10
2018-08-27T06:22:57.605Z,1.60
2018-08-27T06:23:30.800Z,1.70
2018-08-27T06:24:03.814Z,1.87
2018-08-27T06:24:36.794Z,1.50
2018-08-27T06:25:10.682Z,1.75
2018-08-27T06:25:43.608Z,1.65
2018-08-27T06:26:16.740Z,2.30
2018-08-27T06:26:49.658Z,1.67
2018-08-27T06:27:22.866Z,1.42
2018-08-27T06:27:56.351Z,1.70
2018-08-27T06:28:29.478Z,2.20
2018-08-27T06:29:03.709Z,2.15
2018-08-27T06:29:36.980Z,1.90
2018-08-27T06:30:11.465Z,2.12
2018-08-27T06:30:45.889Z,1.90
2018-08-27T06:31:22.015Z,2.10
2018-08-27T06:31:55.682Z,2.22
2018-08-27T06:32:31.224Z,2.00
2018-08-27T06:33:07.016Z,2.20
2018-08-27T06:33:42.690Z,2.08
2018-08-27T06:34:16.231Z,1.95
2018-08-27T06:34:50.258Z,1.55
2018-08-27T06:35:23.689Z,1.60
2018-08-27T06:35:59.674Z,2.15
2018-08-27T06:36:34.430Z,2.15
2018-08-27T06:37:07.910Z,1.95
2018-08-27T06:37:42.569Z,1.95
2018-08-27T06:38:16.178Z,1.82
2018-08-27T06:38:51.048Z,2.40
2018-08-27T06:39:24.964Z,1.70
2018-08-27T06:40:00.835Z,1.77
2018-08-27T06:40:33.910Z,2.70
2018-08-27T06:41:07.090Z,1.50
2018-08-27T06:41:40.368Z,2.45
2018-08-27T06:42:13.368Z,1.95
2018-08-27T06:42:46.571Z,1.50
2018-08-27T06:43:19.688Z,1.65
2018-08-27T06:43:52.757Z,1.75
2018-08-27T06:44:25.828Z,1.70
2018-08-27T06:44:59.025Z,1.98
2018-08-27T06:45:31.990Z,2.02
2018-08-27T06:46:05.134Z,1.90
2018-08-27T06:46:38.705Z,2.02
2018-08-27T06:47:11.824Z,2.02
2018-08-27T06:47:45.205Z,2.12
2018-08-27T06:48:18.236Z,2.00
2018-08-27T06:48:51.351Z,1.82
2018-08-27T06:49:24.394Z,2.00
2018-08-27T06:49:57.402Z,1.70
2018-08-27T06:50:30.442Z,2.17
2018-08-27T06:51:04.279Z,1.95
2018-08-27T06:51:38.392Z,2.05
2018-08-27T06:52:11.515Z,2.15
2018-08-27T06:52:44.593Z,2.52
2018-08-27T06:53:18.274Z,1.87
2018-08-27T06:53:51.345Z,1.80
2018-08-27T06:54:24.425Z,2.00
2018-08-27T06:54:57.502Z,1.92
2018-08-27T06:55:30.636Z,2.30
2018-08-27T06:56:03.569Z,1.80
2018-08-27T06:56:36.634Z,2.20
2018-08-27T06:57:09.622Z,2.25
2018-08-27T06:57:43.141Z,1.90
2018-08-27T06:58:16.323Z,2.27
2018-08-27T06:58:49.245Z,2.08
2018-08-27T06:59:22.281Z,2.05
2018-08-27T06:59:55.250Z,2.33
2018-08-27T07:00:28.351Z,1.80
2018-08-27T07:01:01.836Z,1.80
2018-08-27T07:01:34.771Z,2.05
2018-08-27T07:02:08.207Z,2.20
2018-08-27T07:02:41.187Z,2.00
2018-08-27T07:03:14.931Z,2.40
2018-08-27T07:03:47.935Z,2.27
2018-08-27T07:04:21.577Z,1.77
2018-08-27T07:04:54.624Z,2.10
2018-08-27T07:05:27.585Z,2.10
2018-08-27T07:06:00.750Z,2.58
2018-08-27T07:06:34.116Z,2.55
2018-08-27T07:07:07.103Z,2.67
2018-08-27T07:07:40.318Z,2.20
2018-08-27T07:08:13.277Z,3.30
2018-08-27T07:08:46.286Z,2.55
2018-08-27T07:09:19.513Z,2.70
2018-08-27T07:09:52.640Z,2.67
2018-08-27T07:10:25.553Z,2.50
2018-08-27T07:10:58.570Z,2.47
2018-08-27T07:11:31.720Z,1.80
2018-08-27T07:12:04.709Z,2.70
2018-08-27T07:12:37.790Z,2.12
2018-08-27T07:13:10.828Z,2.60
2018-08-27T07:13:43.738Z,3.05
2018-08-27T07:14:19.603Z,3.00
2018-08-27T07:14:56.339Z,2.55
2018-08-27T07:15:30.032Z,2.62
2018-08-27T07:16:05.463Z,2.40
2018-08-27T07:16:38.677Z,2.30
2018-08-27T07:17:15.773Z,2.75
2018-08-27T07:17:50.973Z,2.70